Time;durP1;ratioP1;P1;durP2;ratioP2;P2;SDS_P1;SDS_P2;PMS_P1;PMS_P2;Temp;Humidity;BMP_temperature;BMP_pressure;BME280_temperature;BME280_humidity;BME280_pressure;Samples;Min_cycle;Max_cycle;Signal;HPM_P1;HPM_P2
2023/03/05 00:00:05;;;;;;;5.68;2.97;;;5.20;99.90;;;;;;4985635;28;20098;-75
2023/03/05 00:02:39;;;;;;;3.45;2.72;;;5.30;99.90;;;;;;4987251;28;20060;-75
2023/03/05 00:05:06;;;;;;;12.63;3.25;;;5.30;99.90;;;;;;4986847;28;20038;-76
2023/03/05 00:07:32;;;;;;;7.25;3.53;;;5.30;99.90;;;;;;4985797;28;20105;-75
2023/03/05 00:10:03;;;;;;;4.75;2.85;;;5.20;99.90;;;;;;4986837;28;20030;-75
2023/03/05 00:12:29;;;;;;;6.40;1.85;;;5.20;99.90;;;;;;4985532;28;20030;-75
2023/03/05 00:14:54;;;;;;;4.82;3.58;;;5.20;99.90;;;;;;4985793;28;20380;-75
2023/03/05 00:17:20;;;;;;;5.10;2.85;;;5.20;99.90;;;;;;4985909;28;20035;-76
2023/03/05 00:19:46;;;;;;;8.48;3.22;;;5.20;99.90;;;;;;4986908;28;20055;-75
2023/03/05 00:22:12;;;;;;;4.57;2.80;;;5.20;99.90;;;;;;4985607;28;20027;-76
2023/03/05 00:24:38;;;;;;;8.20;4.07;;;5.10;99.90;;;;;;4985898;28;20027;-75
2023/03/05 00:27:03;;;;;;;6.70;3.42;;;5.10;99.90;;;;;;4986668;28;20039;-76
2023/03/05 00:29:30;;;;;;;2.05;1.95;;;5.10;99.90;;;;;;4953407;28;20429;-75
2023/03/05 00:31:55;;;;;;;7.53;3.75;;;5.10;99.90;;;;;;4985674;28;20066;-76
2023/03/05 00:34:22;;;;;;;11.52;5.57;;;5.10;99.90;;;;;;4985608;28;20082;-76
2023/03/05 00:36:51;;;;;;;4.80;1.88;;;5.10;99.90;;;;;;4985548;28;20031;-76
2023/03/05 00:39:19;;;;;;;8.50;3.53;;;5.10;99.90;;;;;;4969416;28;20034;-76
2023/03/05 00:41:44;;;;;;;5.70;3.88;;;5.10;99.90;;;;;;4985267;28;20031;-75
2023/03/05 00:44:11;;;;;;;3.20;2.40;;;5.10;99.90;;;;;;4985625;28;20038;-77
2023/03/05 00:46:37;;;;;;;9.98;3.67;;;5.00;99.90;;;;;;4986627;28;20042;-75
2023/03/05 00:49:03;;;;;;;5.28;2.70;;;5.00;99.90;;;;;;5001652;28;20077;-75
2023/03/05 00:51:29;;;;;;;7.40;2.83;;;5.00;99.90;;;;;;4969241;28;20039;-75
2023/03/05 00:53:55;;;;;;;3.90;3.25;;;5.00;99.90;;;;;;4985450;28;20042;-75
2023/03/05 00:56:22;;;;;;;8.23;2.72;;;5.00;99.90;;;;;;4975239;28;20045;-75
2023/03/05 00:58:48;;;;;;;14.82;4.85;;;4.90;99.90;;;;;;4997820;28;20073;-75
2023/03/05 01:01:14;;;;;;;5.85;2.42;;;4.90;99.90;;;;;;4982202;28;20043;-75
2023/03/05 01:03:39;;;;;;;3.50;3.20;;;4.90;99.90;;;;;;4982195;28;20043;-76
2023/03/05 01:06:11;;;;;;;13.55;3.00;;;4.90;99.90;;;;;;4965898;28;20063;-76
2023/03/05 01:08:37;;;;;;;5.70;4.18;;;5.00;99.90;;;;;;4966042;28;20027;-75
2023/03/05 01:11:05;;;;;;;4.10;2.83;;;4.90;99.90;;;;;;4997783;28;20054;-76
2023/03/05 01:13:31;;;;;;;5.75;2.85;;;4.90;99.90;;;;;;4967034;28;20031;-75
2023/03/05 01:15:57;;;;;;;7.72;2.38;;;4.90;99.90;;;;;;4966010;28;20035;-76
2023/03/05 01:18:23;;;;;;;6.05;3.45;;;4.90;99.90;;;;;;4981886;28;20032;-76
2023/03/05 01:20:49;;;;;;;11.43;3.03;;;4.90;99.90;;;;;;5001264;28;20054;-76
2023/03/05 01:23:15;;;;;;;7.47;3.63;;;4.90;99.90;;;;;;4987825;28;20035;-75
2023/03/05 01:25:41;;;;;;;3.60;3.05;;;4.90;99.90;;;;;;4988170;28;20069;-75
2023/03/05 01:28:07;;;;;;;5.35;2.80;;;4.90;99.90;;;;;;4988486;28;20026;-75
2023/03/05 01:30:34;;;;;;;8.60;3.10;;;4.80;99.90;;;;;;4988574;28;20158;-75
2023/03/05 01:33:00;;;;;;;3.03;2.28;;;4.80;99.90;;;;;;4988276;28;20014;-76
2023/03/05 01:35:27;;;;;;;9.10;4.45;;;4.80;99.90;;;;;;4972103;28;20046;-76
2023/03/05 01:37:55;;;;;;;5.75;3.22;;;4.80;99.90;;;;;;4988422;28;20035;-76
2023/03/05 01:40:25;;;;;;;4.63;2.65;;;4.80;99.90;;;;;;4988205;28;20038;-75
2023/03/05 01:42:56;;;;;;;;;;;4.80;99.90;;;;;;4988607;28;20027;-74
2023/03/05 01:45:22;;;;;;;4.75;2.60;;;4.80;99.90;;;;;;4981246;28;19914;-75
2023/03/05 01:47:47;;;;;;;21.70;3.10;;;4.70;99.90;;;;;;4968708;28;20087;-75
2023/03/05 01:50:18;;;;;;;6.97;3.17;;;4.70;99.90;;;;;;4982526;28;20027;-75
2023/03/05 01:52:53;;;;;;;4.82;4.00;;;4.70;99.90;;;;;;5004482;28;20027;-75
2023/03/05 01:55:23;;;;;;;8.75;3.20;;;4.70;99.90;;;;;;4988143;28;20026;-75
2023/03/05 01:57:54;;;;;;;8.73;4.80;;;4.60;99.90;;;;;;4987960;28;20170;-75
2023/03/05 02:00:45;;;;;;;2.78;2.38;;;4.60;99.90;;;;;;4987674;28;20053;-75
2023/03/05 02:03:12;;;;;;;7.05;3.15;;;4.50;99.90;;;;;;5001574;28;20054;-76
2023/03/05 02:05:40;;;;;;;9.90;3.75;;;4.50;99.90;;;;;;4987796;28;20089;-75
2023/03/05 02:08:08;;;;;;;5.35;3.38;;;4.40;99.90;;;;;;4987648;28;20033;-76
2023/03/05 02:11:02;;;;;;;5.32;3.97;;;4.50;99.90;;;;;;4987913;28;20086;-75
2023/03/05 02:13:32;;;;;;;12.38;3.17;;;4.40;99.90;;;;;;4989473;28;20039;-75
2023/03/05 02:15:59;;;;;;;3.10;2.28;;;4.40;99.90;;;;;;4988627;28;20041;-75
2023/03/05 02:18:25;;;;;;;3.65;3.08;;;4.40;99.90;;;;;;4989060;28;20031;-75
2023/03/05 02:21:11;;;;;;;6.82;3.00;;;4.40;99.90;;;;;;4971515;28;20087;-75
2023/03/05 02:23:38;;;;;;;10.15;4.13;;;4.40;99.90;;;;;;4987648;28;20457;-75
2023/03/05 02:26:06;;;;;;;5.10;2.88;;;4.40;99.90;;;;;;4987327;28;20126;-76
2023/03/05 02:28:32;;;;;;;7.05;2.40;;;4.40;99.90;;;;;;4986775;28;20038;-75
2023/03/05 02:30:58;;;;;;;5.45;2.97;;;4.30;99.90;;;;;;4988653;28;20103;-75
2023/03/05 02:33:25;;;;;;;7.63;4.35;;;4.30;99.90;;;;;;4970959;28;20022;-75
2023/03/05 02:35:51;;;;;;;18.52;3.55;;;4.30;99.90;;;;;;4987369;28;20042;-75
2023/03/05 02:38:19;;;;;;;11.45;3.35;;;4.30;99.90;;;;;;4955130;28;20102;-75
2023/03/05 02:40:45;;;;;;;6.35;3.83;;;4.30;99.90;;;;;;4987230;28;20046;-75
2023/03/05 02:43:14;;;;;;;4.97;2.70;;;4.20;99.90;;;;;;4986765;28;20480;-75
2023/03/05 02:45:40;;;;;;;13.93;4.82;;;4.20;99.90;;;;;;4987085;28;20033;-75
2023/03/05 02:48:06;;;;;;;5.72;3.42;;;4.20;99.90;;;;;;4987100;28;20041;-75
2023/03/05 02:50:34;;;;;;;6.28;3.92;;;4.20;99.90;;;;;;4987221;28;20050;-75
2023/03/05 02:53:00;;;;;;;5.50;2.78;;;4.20;99.90;;;;;;4988313;28;20023;-75
2023/03/05 02:55:26;;;;;;;7.47;3.47;;;4.20;99.90;;;;;;4986695;28;20042;-75
2023/03/05 02:57:52;;;;;;;4.57;2.45;;;4.30;99.90;;;;;;4970407;28;20027;-75
2023/03/05 03:00:18;;;;;;;7.65;3.80;;;4.20;99.90;;;;;;4986836;28;20066;-75
2023/03/05 03:02:44;;;;;;;7.80;3.55;;;4.20;99.90;;;;;;4970731;28;20035;-75
2023/03/05 03:05:10;;;;;;;9.02;3.25;;;4.20;99.90;;;;;;4986830;28;20118;-76
2023/03/05 03:07:35;;;;;;;3.70;3.33;;;4.10;99.90;;;;;;4986769;28;20027;-75
2023/03/05 03:10:05;;;;;;;3.03;2.50;;;4.20;99.90;;;;;;4986436;28;20038;-75
2023/03/05 03:12:35;;;;;;;10.10;3.35;;;4.20;99.90;;;;;;4986584;28;20035;-75
2023/03/05 03:15:01;;;;;;;3.70;3.25;;;4.20;99.90;;;;;;4986731;28;20026;-75
2023/03/05 03:17:27;;;;;;;8.23;2.22;;;4.30;99.90;;;;;;4970296;28;20034;-75
2023/03/05 03:19:53;;;;;;;4.28;2.80;;;4.30;99.90;;;;;;4986397;28;20030;-75
2023/03/05 03:22:19;;;;;;;8.02;4.45;;;4.20;99.90;;;;;;4987805;28;20464;-75
2023/03/05 03:24:44;;;;;;;7.57;2.83;;;4.20;99.90;;;;;;4986301;28;20038;-75
2023/03/05 03:27:10;;;;;;;5.30;2.28;;;4.20;99.90;;;;;;4987631;28;20059;-75
2023/03/05 03:29:36;;;;;;;4.10;2.38;;;4.10;99.90;;;;;;4987379;28;20054;-75
2023/03/05 03:32:03;;;;;;;5.93;2.85;;;4.20;99.90;;;;;;4987588;28;20023;-75
2023/03/05 03:34:29;;;;;;;3.28;2.28;;;4.20;99.90;;;;;;4986332;28;20062;-75
2023/03/05 03:36:55;;;;;;;3.60;3.33;;;4.20;99.90;;;;;;4986427;28;20109;-75
2023/03/05 03:39:21;;;;;;;12.98;2.30;;;4.20;99.90;;;;;;4987099;28;20031;-75
2023/03/05 03:41:50;;;;;;;11.50;3.65;;;4.10;99.90;;;;;;4987500;28;20038;-75
2023/03/05 03:44:17;;;;;;;9.88;2.75;;;4.10;99.90;;;;;;4969759;28;20031;-75
2023/03/05 03:46:45;;;;;;;4.20;2.22;;;4.10;99.90;;;;;;4985527;28;20031;-76
2023/03/05 03:49:24;;;;;;;7.72;3.17;;;4.10;99.90;;;;;;4967959;28;20461;-75
2023/03/05 03:51:53;;;;;;;2.97;2.77;;;4.10;99.90;;;;;;4968021;28;20116;-75
2023/03/05 03:54:20;;;;;;;7.53;4.15;;;4.10;99.90;;;;;;4967903;28;20078;-75
2023/03/05 03:56:46;;;;;;;11.07;4.68;;;4.10;99.90;;;;;;4966621;28;20116;-75
2023/03/05 03:59:13;;;;;;;6.63;4.75;;;4.10;99.90;;;;;;4966301;28;20056;-75
2023/03/05 04:01:39;;;;;;;10.35;5.43;;;4.10;99.90;;;;;;4968768;28;20114;-75
2023/03/05 04:04:05;;;;;;;5.68;4.25;;;4.10;99.90;;;;;;4987112;28;20042;-75
2023/03/05 04:06:31;;;;;;;8.50;3.55;;;4.10;99.90;;;;;;4985994;28;20043;-75
2023/03/05 04:08:57;;;;;;;9.35;3.75;;;4.10;99.90;;;;;;4985661;28;20034;-75
2023/03/05 04:11:23;;;;;;;15.80;5.88;;;4.00;99.90;;;;;;4985848;28;20361;-75
2023/03/05 04:13:50;;;;;;;7.30;3.72;;;4.00;99.90;;;;;;4985931;28;20473;-75
2023/03/05 04:16:16;;;;;;;6.95;3.35;;;4.00;99.90;;;;;;4985565;28;20069;-76
2023/03/05 04:18:42;;;;;;;9.55;4.60;;;4.00;99.90;;;;;;4986941;28;20054;-75
2023/03/05 04:21:08;;;;;;;5.47;2.97;;;4.00;99.90;;;;;;4985758;28;20480;-75
2023/03/05 04:23:34;;;;;;;6.22;3.33;;;4.00;99.90;;;;;;4985714;28;20038;-74
2023/03/05 04:26:00;;;;;;;5.35;3.35;;;4.00;99.90;;;;;;4986755;28;20039;-74
2023/03/05 04:28:26;;;;;;;4.90;4.22;;;3.90;99.90;;;;;;4987070;28;20041;-74
2023/03/05 04:30:52;;;;;;;8.13;4.40;;;4.00;99.90;;;;;;4986711;28;20046;-74
2023/03/05 04:33:18;;;;;;;4.35;3.95;;;4.00;99.90;;;;;;4986616;28;20550;-76
2023/03/05 04:35:44;;;;;;;4.13;3.03;;;4.00;99.90;;;;;;4986966;28;20046;-75
2023/03/05 04:38:10;;;;;;;5.57;4.45;;;4.00;99.90;;;;;;4969536;28;20049;-75
2023/03/05 04:40:36;;;;;;;8.45;4.03;;;3.90;99.90;;;;;;4985641;28;20038;-76
2023/03/05 04:43:03;;;;;;;3.55;3.33;;;4.00;99.90;;;;;;4985505;28;20035;-77
2023/03/05 04:45:29;;;;;;;9.88;4.78;;;3.90;99.90;;;;;;4985438;28;20031;-74
2023/03/05 04:47:55;;;;;;;4.72;3.55;;;4.00;99.90;;;;;;4985280;28;20034;-76
2023/03/05 04:50:21;;;;;;;15.77;5.78;;;4.00;99.90;;;;;;4985565;28;20034;-76
2023/03/05 04:52:47;;;;;;;10.52;4.57;;;4.00;99.90;;;;;;4985417;28;20031;-75
2023/03/05 04:55:15;;;;;;;14.63;6.57;;;4.00;99.90;;;;;;4986633;28;20023;-76
2023/03/05 04:57:41;;;;;;;8.75;6.75;;;4.00;99.90;;;;;;4988986;28;20027;-75
2023/03/05 05:00:13;;;;;;;11.23;5.78;;;4.00;99.90;;;;;;4989705;28;20051;-75
2023/03/05 05:02:40;;;;;;;6.75;5.40;;;4.00;99.90;;;;;;5005397;28;20407;-76
2023/03/05 05:05:07;;;;;;;8.02;6.13;;;4.00;99.90;;;;;;4990226;28;20484;-75
2023/03/05 05:07:33;;;;;;;6.13;5.13;;;3.90;99.90;;;;;;4972710;28;20126;-76
2023/03/05 05:09:59;;;;;;;10.27;5.18;;;3.90;99.90;;;;;;4990178;28;20042;-76
2023/03/05 05:12:29;;;;;;;12.27;6.43;;;3.90;99.90;;;;;;4988871;28;20023;-75
2023/03/05 05:14:57;;;;;;;6.22;5.25;;;3.90;99.90;;;;;;4988462;28;20443;-75
2023/03/05 05:17:23;;;;;;;9.77;5.38;;;3.90;99.90;;;;;;4988462;28;20033;-76
2023/03/05 05:19:48;;;;;;;4.43;3.92;;;3.90;99.90;;;;;;4988907;28;20078;-75
2023/03/05 05:22:14;;;;;;;7.57;5.55;;;3.90;99.90;;;;;;4989694;28;20035;-75
2023/03/05 05:24:40;;;;;;;8.65;4.50;;;3.80;99.90;;;;;;4989663;28;20041;-75
2023/03/05 05:27:06;;;;;;;12.95;7.53;;;3.80;99.90;;;;;;4989924;28;20038;-75
2023/03/05 05:29:32;;;;;;;4.63;4.20;;;3.80;99.90;;;;;;4989747;28;20033;-76
2023/03/05 05:31:58;;;;;;;5.95;5.40;;;3.80;99.90;;;;;;4989564;28;20476;-76
2023/03/05 05:34:24;;;;;;;4.95;4.28;;;3.80;99.90;;;;;;4988514;28;20046;-75
2023/03/05 05:36:51;;;;;;;8.73;5.20;;;3.80;99.90;;;;;;4989548;28;20050;-76
2023/03/05 05:39:17;;;;;;;10.73;6.32;;;3.80;99.90;;;;;;4987991;28;20042;-76
2023/03/05 05:41:43;;;;;;;11.35;5.68;;;3.80;99.90;;;;;;4988392;28;20049;-75
2023/03/05 05:44:09;;;;;;;6.03;4.95;;;3.80;99.90;;;;;;4988230;28;20050;-75
2023/03/05 05:46:34;;;;;;;6.80;6.20;;;3.70;99.90;;;;;;4989362;28;20037;-75
2023/03/05 05:49:00;;;;;;;8.10;5.78;;;3.70;99.90;;;;;;4972247;28;20022;-75
2023/03/05 05:51:26;;;;;;;9.15;6.68;;;3.70;99.90;;;;;;4988117;28;20035;-76
2023/03/05 05:53:53;;;;;;;12.65;5.70;;;3.70;99.90;;;;;;4987262;28;20453;-76
2023/03/05 05:56:19;;;;;;;9.50;7.57;;;3.70;99.90;;;;;;4989445;28;20034;-76
2023/03/05 05:58:47;;;;;;;8.95;5.18;;;3.70;99.90;;;;;;4988890;28;20035;-76
2023/03/05 06:01:14;;;;;;;6.53;5.90;;;3.70;99.90;;;;;;4988058;28;20094;-75
2023/03/05 06:03:40;;;;;;;10.70;6.40;;;3.70;99.90;;;;;;4989311;28;20488;-75
2023/03/05 06:06:14;;;;;;;11.52;7.13;;;3.60;99.90;;;;;;4987666;28;20118;-76
2023/03/05 06:08:41;;;;;;;13.18;6.68;;;3.70;99.90;;;;;;4986953;28;20078;-76
2023/03/05 06:11:06;;;;;;;8.52;6.50;;;3.70;99.90;;;;;;4989194;28;20069;-76
2023/03/05 06:13:32;;;;;;;8.52;6.88;;;3.70;99.90;;;;;;4988964;28;20023;-76
2023/03/05 06:16:01;;;;;;;8.52;5.15;;;3.70;99.90;;;;;;5004011;28;20039;-76
2023/03/05 06:18:27;;;;;;;7.97;5.05;;;3.70;99.90;;;;;;4987891;28;20046;-76
2023/03/05 06:20:58;;;;;;;9.43;6.32;;;3.70;99.90;;;;;;5003810;28;20034;-76
2023/03/05 06:23:25;;;;;;;8.90;6.03;;;3.80;99.90;;;;;;4987260;28;20037;-76
2023/03/05 06:25:51;;;;;;;12.02;6.47;;;3.80;99.90;;;;;;4988774;28;20476;-75
2023/03/05 06:28:17;;;;;;;8.35;6.80;;;3.80;99.90;;;;;;4988723;28;20035;-76
2023/03/05 06:30:43;;;;;;;9.38;6.68;;;3.80;99.90;;;;;;4987441;28;20025;-76
2023/03/05 06:33:09;;;;;;;7.05;6.35;;;3.90;99.90;;;;;;4988735;28;20030;-76
2023/03/05 06:35:38;;;;;;;11.15;9.27;;;3.80;99.90;;;;;;4987228;28;20031;-76
2023/03/05 06:38:04;;;;;;;8.65;7.43;;;3.90;99.90;;;;;;4987106;28;20134;-75
2023/03/05 06:40:30;;;;;;;19.05;7.68;;;3.90;99.90;;;;;;4971115;28;20027;-74
2023/03/05 06:42:56;;;;;;;9.85;6.28;;;3.90;99.90;;;;;;4988384;28;20062;-75
2023/03/05 06:45:22;;;;;;;8.48;7.78;;;3.90;99.90;;;;;;4988315;28;20384;-75
2023/03/05 06:47:47;;;;;;;8.15;7.32;;;3.90;99.90;;;;;;4987103;28;20030;-75
2023/03/05 06:50:13;;;;;;;8.02;7.30;;;3.90;99.90;;;;;;4988384;28;20058;-74
2023/03/05 06:52:39;;;;;;;8.68;7.90;;;3.90;99.90;;;;;;4987947;28;20022;-75
2023/03/05 06:55:07;;;;;;;7.90;7.18;;;4.00;99.90;;;;;;4987025;28;20033;-75
2023/03/05 06:57:33;;;;;;;7.45;6.85;;;4.00;99.90;;;;;;4985587;28;20038;-75
2023/03/05 06:59:58;;;;;;;8.30;6.90;;;4.00;99.90;;;;;;4985681;28;20051;-75
2023/03/05 07:02:24;;;;;;;7.65;6.63;;;4.00;99.90;;;;;;4987572;28;20081;-75
2023/03/05 07:04:50;;;;;;;6.78;6.18;;;4.00;99.90;;;;;;4986096;28;20039;-75
2023/03/05 07:07:16;;;;;;;10.35;8.07;;;4.10;99.90;;;;;;4986340;28;20066;-76
2023/03/05 07:09:44;;;;;;;9.38;7.72;;;4.10;99.90;;;;;;4987636;28;20066;-76
2023/03/05 07:12:11;;;;;;;8.95;6.30;;;4.20;99.90;;;;;;4986281;28;20062;-75
2023/03/05 07:14:40;;;;;;;24.17;8.43;;;4.20;99.90;;;;;;4986073;28;20081;-75
2023/03/05 07:17:06;;;;;;;6.88;5.30;;;4.20;99.90;;;;;;4986490;28;20047;-76
2023/03/05 07:19:32;;;;;;;8.75;6.13;;;4.20;99.90;;;;;;4986500;28;20041;-76
2023/03/05 07:21:58;;;;;;;7.40;5.20;;;4.20;99.90;;;;;;4969280;28;20563;-76
2023/03/05 07:24:28;;;;;;;6.28;5.68;;;4.30;99.90;;;;;;4969459;28;20038;-75
2023/03/05 07:26:58;;;;;;;5.32;4.82;;;4.20;99.90;;;;;;4987030;28;20034;-75
2023/03/05 07:29:26;;;;;;;11.65;3.83;;;4.30;99.90;;;;;;4986896;28;20035;-75
2023/03/05 07:31:52;;;;;;;10.50;5.85;;;4.40;99.90;;;;;;4987117;28;20031;-76
2023/03/05 07:34:19;;;;;;;7.13;3.65;;;4.40;99.90;;;;;;4977776;28;20031;-75
2023/03/05 07:36:48;;;;;;;7.90;3.97;;;4.50;99.90;;;;;;4985895;28;20130;-76
2023/03/05 07:39:14;;;;;;;4.27;3.57;;;4.50;99.90;;;;;;4986071;28;20035;-75
2023/03/05 07:41:40;;;;;;;3.65;3.40;;;4.50;99.90;;;;;;4985580;28;20054;-75
2023/03/05 07:44:05;;;;;;;4.30;3.88;;;4.50;99.90;;;;;;4987166;28;20037;-76
2023/03/05 07:46:32;;;;;;;10.25;4.93;;;4.50;99.90;;;;;;4987076;28;20022;-75
2023/03/05 07:48:58;;;;;;;10.70;4.97;;;4.50;99.90;;;;;;4972382;28;20086;-75
2023/03/05 07:51:26;;;;;;;6.63;4.82;;;4.60;99.90;;;;;;4986829;28;20054;-75
2023/03/05 07:53:54;;;;;;;8.02;3.42;;;4.70;99.90;;;;;;4985755;28;20488;-75
2023/03/05 07:56:33;;;;;;;4.80;4.43;;;4.70;99.90;;;;;;4985658;28;20031;-76
2023/03/05 07:59:02;;;;;;;5.45;3.78;;;4.80;99.90;;;;;;4978469;28;20037;-75
2023/03/05 08:01:29;;;;;;;5.70;4.50;;;4.90;99.90;;;;;;4985440;28;20042;-75
2023/03/05 08:03:55;;;;;;;7.05;5.72;;;5.00;99.90;;;;;;4986723;28;20551;-76
2023/03/05 08:06:21;;;;;;;8.05;6.50;;;5.10;99.90;;;;;;4986012;28;20043;-76
2023/03/05 08:08:47;;;;;;;6.50;5.70;;;5.30;99.90;;;;;;4969254;28;20126;-76
2023/03/05 08:11:15;;;;;;;9.05;5.80;;;5.40;99.90;;;;;;4969754;28;20023;-75
2023/03/05 08:13:42;;;;;;;6.30;5.70;;;5.50;99.90;;;;;;4984987;28;20477;-75
2023/03/05 08:16:19;;;;;;;18.65;7.10;;;5.60;99.90;;;;;;4986430;28;20034;-76
2023/03/05 08:18:46;;;;;;;6.45;5.47;;;5.70;99.90;;;;;;4970480;28;20069;-75
2023/03/05 08:21:22;;;;;;;13.52;8.07;;;5.80;99.90;;;;;;4969489;28;20053;-74
2023/03/05 08:23:48;;;;;;;7.25;4.88;;;5.90;99.90;;;;;;4985468;28;20077;-74
2023/03/05 08:26:17;;;;;;;6.05;5.32;;;6.10;99.90;;;;;;4985304;28;20041;-75
2023/03/05 08:28:42;;;;;;;6.15;5.13;;;6.20;99.90;;;;;;4986972;28;20030;-73
2023/03/05 08:31:09;;;;;;;8.55;6.78;;;6.30;99.90;;;;;;4987872;28;20054;-74
2023/03/05 08:33:36;;;;;;;12.25;7.18;;;6.40;99.90;;;;;;4990683;28;20075;-74
2023/03/05 08:36:02;;;;;;;9.98;7.18;;;6.60;99.90;;;;;;4990801;28;20027;-74
2023/03/05 08:38:28;;;;;;;16.45;6.38;;;6.60;99.90;;;;;;4989083;28;20050;-74
2023/03/05 08:40:54;;;;;;;8.52;7.22;;;6.60;99.90;;;;;;4990646;28;20070;-74
2023/03/05 08:43:20;;;;;;;7.10;6.28;;;6.60;99.90;;;;;;4973393;28;20515;-74
2023/03/05 08:45:46;;;;;;;13.70;6.18;;;6.60;99.90;;;;;;4989823;28;20033;-74
2023/03/05 08:48:12;;;;;;;12.27;7.22;;;6.80;99.90;;;;;;4986781;28;20070;-74
2023/03/05 08:50:38;;;;;;;6.45;5.80;;;7.00;99.90;;;;;;4967733;28;20031;-74
2023/03/05 08:53:04;;;;;;;12.13;6.45;;;7.10;99.90;;;;;;4971017;28;20039;-74
2023/03/05 08:55:30;;;;;;;6.07;5.45;;;7.30;99.90;;;;;;4972880;28;20496;-76
2023/03/05 08:57:56;;;;;;;7.82;5.20;;;7.40;99.90;;;;;;4988776;28;20311;-74
2023/03/05 09:00:22;;;;;;;8.40;7.70;;;7.40;99.90;;;;;;4990174;28;20562;-74
2023/03/05 09:02:47;;;;;;;7.60;5.15;;;7.50;99.90;;;;;;4990178;28;20058;-74
2023/03/05 09:05:13;;;;;;;6.03;5.25;;;7.70;99.90;;;;;;4988569;28;20098;-74
2023/03/05 09:07:39;;;;;;;5.28;4.85;;;7.70;99.90;;;;;;4990270;28;20046;-74
2023/03/05 09:10:06;;;;;;;5.45;4.32;;;7.70;99.90;;;;;;4989871;28;20565;-74
2023/03/05 09:12:33;;;;;;;5.53;5.03;;;8.10;99.90;;;;;;4990207;28;20034;-74
2023/03/05 09:15:00;;;;;;;4.15;3.85;;;8.30;99.90;;;;;;4987884;28;20077;-74
2023/03/05 09:17:26;;;;;;;4.35;4.05;;;8.30;99.90;;;;;;5002462;28;20047;-75
2023/03/05 09:19:52;;;;;;;5.80;3.40;;;8.30;99.90;;;;;;4988600;28;20114;-75
2023/03/05 09:22:18;;;;;;;5.10;4.32;;;8.40;99.90;;;;;;4987955;28;20035;-75
2023/03/05 09:24:44;;;;;;;6.32;4.15;;;8.20;99.90;;;;;;4989728;28;20055;-75
2023/03/05 09:27:09;;;;;;;4.22;3.80;;;8.30;99.90;;;;;;5004834;28;20388;-75
2023/03/05 09:29:35;;;;;;;4.07;3.72;;;8.40;99.90;;;;;;4988428;28;20022;-75
2023/03/05 09:32:01;;;;;;;4.47;4.18;;;8.60;99.90;;;;;;4972337;28;20067;-75
2023/03/05 09:34:27;;;;;;;6.35;3.58;;;8.80;99.90;;;;;;4968772;28;20031;-75
2023/03/05 09:36:53;;;;;;;5.28;3.97;;;8.80;99.90;;;;;;4999735;28;20031;-75
2023/03/05 09:39:18;;;;;;;5.20;3.35;;;8.80;99.90;;;;;;4989612;28;20031;-75
2023/03/05 09:41:57;;;;;;;3.70;3.45;;;8.70;99.90;;;;;;4987253;28;20042;-75
2023/03/05 09:44:40;;;;;;;4.88;3.92;;;8.80;99.90;;;;;;4983575;28;20035;-75
2023/03/05 09:47:15;;;;;;;4.82;3.63;;;8.60;99.90;;;;;;4987168;28;20030;-75
2023/03/05 09:49:59;;;;;;;3.13;2.92;;;8.70;99.90;;;;;;4988686;28;20133;-75
2023/03/05 09:52:49;;;;;;;4.20;3.80;;;8.70;99.90;;;;;;4988848;28;20383;-76
2023/03/05 09:55:42;;;;;;;4.97;2.92;;;8.80;99.90;;;;;;4987948;28;20037;-75
2023/03/05 09:58:34;;;;;;;4.75;4.18;;;8.90;99.90;;;;;;4987779;28;20431;-74
2023/03/05 10:01:09;;;;;;;11.50;3.55;;;8.90;99.90;;;;;;4987767;28;20038;-74
2023/03/05 10:03:44;;;;;;;2.80;2.25;;;8.90;99.90;;;;;;4988011;28;20023;-74
2023/03/05 10:06:23;;;;;;;5.10;2.85;;;8.90;99.90;;;;;;4987460;28;20133;-75
2023/03/05 10:09:12;;;;;;;3.15;2.85;;;9.00;99.90;;;;;;4988997;28;20027;-75
2023/03/05 10:11:58;;;;;;;2.67;2.47;;;8.90;99.90;;;;;;4987775;28;20118;-75
2023/03/05 10:14:30;;;;;;;4.43;2.33;;;8.90;99.90;;;;;;4984940;28;20110;-76
2023/03/05 10:17:10;;;;;;;2.72;2.38;;;8.80;99.90;;;;;;4988893;28;20038;-75
2023/03/05 10:19:54;;;;;;;;;;;9.00;99.90;;;;;;4988188;28;20038;-75
2023/03/05 10:22:37;;;;;;;4.80;2.92;;;9.20;99.90;;;;;;4987743;28;20256;-75
2023/03/05 10:25:19;;;;;;;9.23;7.60;;;9.30;99.90;;;;;;4988218;28;20057;-75
2023/03/05 10:27:54;;;;;;;3.35;2.83;;;9.60;99.90;;;;;;4969584;28;20055;-75
2023/03/05 10:30:28;;;;;;;4.60;3.00;;;9.60;99.90;;;;;;4969317;28;20027;-75
2023/03/05 10:33:06;;;;;;;4.13;3.80;;;9.80;99.90;;;;;;4969191;28;20032;-75
2023/03/05 10:35:57;;;;;;;4.50;4.10;;;9.70;99.90;;;;;;4969148;28;20118;-75
2023/03/05 10:38:47;;;;;;;6.07;4.93;;;9.10;99.90;;;;;;4969259;28;20033;-75
2023/03/05 10:41:32;;;;;;;8.80;5.38;;;8.80;99.90;;;;;;4968409;29;20054;-75
2023/03/05 10:44:10;;;;;;;5.97;4.38;;;8.40;99.90;;;;;;4969136;28;20031;-75
2023/03/05 10:46:37;;;;;;;5.15;4.65;;;8.60;99.90;;;;;;4969006;28;20035;-75
2023/03/05 10:49:12;;;;;;;6.45;5.80;;;8.80;99.90;;;;;;4984023;28;20425;-75
2023/03/05 10:51:45;;;;;;;8.32;7.50;;;9.10;99.90;;;;;;4969041;28;20031;-75
2023/03/05 10:54:32;;;;;;;4.30;3.92;;;9.30;99.90;;;;;;4983626;28;20058;-75
2023/03/05 10:57:12;;;;;;;7.82;5.63;;;9.40;99.90;;;;;;4969051;28;20059;-75
2023/03/05 11:00:04;;;;;;;5.60;4.75;;;9.40;99.90;;;;;;4983341;28;20062;-75
2023/03/05 11:02:30;;;;;;;7.75;4.28;;;9.40;99.90;;;;;;4967570;28;20432;-75
2023/03/05 11:04:56;;;;;;;7.47;3.92;;;9.30;99.90;;;;;;4967449;28;20082;-75
2023/03/05 11:07:25;;;;;;;4.78;4.38;;;8.90;99.90;;;;;;4967513;28;20500;-75
2023/03/05 11:10:02;;;;;;;8.55;6.68;;;8.70;99.90;;;;;;4967508;29;20055;-75
2023/03/05 11:12:30;;;;;;;4.47;4.07;;;8.40;99.90;;;;;;4967135;28;20031;-75
2023/03/05 11:15:25;;;;;;;4.70;3.92;;;8.70;99.90;;;;;;4983360;28;20197;-77
2023/03/05 11:18:17;;;;;;;4.70;4.30;;;9.60;99.90;;;;;;4967164;28;20033;-76
2023/03/05 11:20:43;;;;;;;10.48;4.10;;;10.30;99.90;;;;;;4968383;28;20055;-77
2023/03/05 11:23:22;;;;;;;4.03;3.50;;;10.60;99.90;;;;;;4968331;28;20032;-76
2023/03/05 11:26:07;;;;;;;3.03;2.75;;;11.00;99.90;;;;;;4983790;28;20030;-77
2023/03/05 11:28:32;;;;;;;3.45;3.15;;;10.80;99.90;;;;;;4986451;28;20089;-76
2023/03/05 11:31:22;;;;;;;4.07;3.00;;;10.60;99.90;;;;;;4987727;28;20027;-76
2023/03/05 11:34:17;;;;;;;3.40;2.83;;;10.50;99.90;;;;;;4986409;28;20070;-74
2023/03/05 11:37:02;;;;;;;3.35;1.88;;;10.30;99.90;;;;;;4987407;28;20034;-77
2023/03/05 11:39:32;;;;;;;3.55;3.08;;;9.90;99.90;;;;;;4987547;28;20094;-76
2023/03/05 11:42:03;;;;;;;3.00;2.72;;;9.50;99.90;;;;;;4986078;28;20097;-76
2023/03/05 11:44:38;;;;;;;3.20;2.90;;;9.20;99.90;;;;;;4987468;28;20395;-77
2023/03/05 11:47:19;;;;;;;4.32;3.75;;;8.90;99.90;;;;;;4987112;28;20057;-76
2023/03/05 11:49:48;;;;;;;8.48;3.90;;;8.70;99.90;;;;;;4987283;28;20027;-76
2023/03/05 11:52:17;;;;;;;5.50;4.47;;;8.40;99.90;;;;;;4986046;28;20030;-76
2023/03/05 11:55:16;;;;;;;6.32;4.32;;;8.30;99.90;;;;;;4985548;28;20037;-76
2023/03/05 11:58:10;;;;;;;9.27;4.63;;;7.90;99.90;;;;;;4978489;28;20063;-76
2023/03/05 12:00:40;;;;;;;3.95;3.05;;;7.90;99.90;;;;;;4985500;28;20061;-75
2023/03/05 12:03:11;;;;;;;3.47;3.17;;;7.90;99.90;;;;;;4985477;28;20058;-75
2023/03/05 12:05:44;;;;;;;3.42;2.13;;;8.00;99.90;;;;;;4984903;28;20027;-75
2023/03/05 12:08:33;;;;;;;7.05;4.72;;;8.00;99.90;;;;;;4986746;28;20027;-75
2023/03/05 12:11:08;;;;;;;2.45;2.28;;;8.20;99.90;;;;;;4985523;28;20031;-75
2023/03/05 12:13:40;;;;;;;1.80;1.70;;;8.40;99.90;;;;;;4985920;28;20106;-75
2023/03/05 12:16:15;;;;;;;1.83;1.55;;;8.40;99.90;;;;;;4986415;28;20039;-75
2023/03/05 12:18:58;;;;;;;3.28;2.97;;;8.40;99.90;;;;;;5017916;28;20034;-74
2023/03/05 12:21:36;;;;;;;1.95;1.70;;;8.50;99.90;;;;;;4987076;28;20118;-75
2023/03/05 12:24:22;;;;;;;1.65;1.55;;;8.60;99.90;;;;;;4986751;28;20031;-75
2023/03/05 12:27:03;;;;;;;2.35;1.45;;;8.80;99.90;;;;;;4966262;28;20489;-75
2023/03/05 12:29:32;;;;;;;4.70;1.50;;;9.00;99.90;;;;;;4967630;28;20031;-75
2023/03/05 12:32:02;;;;;;;2.30;2.08;;;8.90;99.90;;;;;;4967575;28;20431;-75
2023/03/05 12:34:44;;;;;;;2.97;1.98;;;8.80;99.90;;;;;;4982284;28;20036;-75
2023/03/05 12:37:32;;;;;;;7.13;2.33;;;8.80;99.90;;;;;;4966200;28;20028;-75
2023/03/05 12:40:20;;;;;;;2.10;1.98;;;8.70;99.90;;;;;;4978661;28;20047;-75
2023/03/05 12:42:50;;;;;;;2.80;1.77;;;8.50;99.90;;;;;;4967414;28;20140;-75
2023/03/05 12:45:18;;;;;;;3.55;2.35;;;8.10;99.90;;;;;;4966153;28;20106;-75
2023/03/05 12:48:09;;;;;;;2.10;1.80;;;8.00;99.90;;;;;;4966031;28;20035;-75
2023/03/05 12:50:38;;;;;;;1.67;1.58;;;8.00;99.90;;;;;;4966108;29;20095;-75
2023/03/05 12:53:18;;;;;;;2.45;2.22;;;8.20;99.90;;;;;;4981971;28;20035;-75
2023/03/05 12:55:44;;;;;;;3.90;3.03;;;8.20;99.90;;;;;;4982007;28;20374;-75
2023/03/05 12:58:38;;;;;;;3.75;3.30;;;8.30;99.90;;;;;;4967382;28;20051;-75
2023/03/05 13:01:28;;;;;;;3.00;2.70;;;8.30;99.90;;;;;;4967206;28;20071;-75
2023/03/05 13:03:55;;;;;;;;;;;8.40;99.90;;;;;;4981836;28;20030;-75
2023/03/05 13:06:28;;;;;;;3.47;3.03;;;8.60;99.90;;;;;;4968403;28;19977;-75
2023/03/05 13:09:03;;;;;;;2.85;2.05;;;8.90;99.90;;;;;;4984792;28;20042;-75